createdAt,value
2018-06-24T00:00:00.557Z,20.28
2018-06-24T00:01:32.131Z,20.20
2018-06-24T00:03:03.706Z,20.06
2018-06-24T00:04:35.284Z,19.98
2018-06-24T00:06:06.856Z,19.99
2018-06-24T00:07:38.431Z,20.03
2018-06-24T00:09:10.106Z,19.99
2018-06-24T00:10:41.583Z,19.92
2018-06-24T00:12:13.156Z,19.88
2018-06-24T00:13:44.773Z,20.08
2018-06-24T00:15:16.305Z,20.17
2018-06-24T00:16:47.880Z,20.18
2018-06-24T00:18:19.455Z,20.03
2018-06-24T00:19:51.029Z,20.02
2018-06-24T00:21:22.608Z,20.05
2018-06-24T00:22:54.329Z,20.39
2018-06-24T00:24:25.755Z,20.72
2018-06-24T00:25:57.328Z,20.84
2018-06-24T00:27:29.103Z,20.84
2018-06-24T00:29:00.477Z,20.84
2018-06-24T00:30:32.051Z,20.82
2018-06-24T00:32:03.628Z,20.66
2018-06-24T00:33:35.199Z,20.50
2018-06-24T00:35:06.774Z,20.38
2018-06-24T00:36:38.348Z,20.39
2018-06-24T00:38:09.924Z,20.31
2018-06-24T00:39:41.498Z,20.36
2018-06-24T00:41:13.072Z,20.59
2018-06-24T00:42:44.647Z,20.69
2018-06-24T00:44:16.222Z,20.52
2018-06-24T00:45:47.897Z,20.58
2018-06-24T00:47:19.372Z,20.47
2018-06-24T00:48:50.945Z,20.43
2018-06-24T00:50:22.521Z,20.33
2018-06-24T00:51:54.095Z,20.36
2018-06-24T00:53:25.669Z,20.50
2018-06-24T00:54:57.245Z,20.76
2018-06-24T00:56:28.819Z,20.91
2018-06-24T00:58:00.545Z,20.95
2018-06-24T00:59:31.968Z,21.01
2018-06-24T01:01:03.543Z,21.13
2018-06-24T01:02:35.118Z,20.98
2018-06-24T01:04:06.793Z,21.19
2018-06-24T01:05:38.267Z,21.16
2018-06-24T01:07:09.845Z,21.19
2018-06-24T01:08:41.417Z,21.04
2018-06-24T01:10:12.995Z,20.98
2018-06-24T01:11:44.567Z,20.88
2018-06-24T01:13:16.141Z,20.92
2018-06-24T01:14:47.716Z,20.92
2018-06-24T01:16:19.391Z,20.98
2018-06-24T01:17:50.865Z,21.07
2018-06-24T01:19:22.440Z,21.25
2018-06-24T01:20:54.015Z,21.04
2018-06-24T01:22:25.689Z,20.89
2018-06-24T01:23:57.164Z,20.97
2018-06-24T01:25:28.738Z,21.01
2018-06-24T01:27:00.314Z,20.99
2018-06-24T01:28:31.988Z,21.03
2018-06-24T01:30:03.463Z,20.88
2018-06-24T01:31:35.038Z,20.85
2018-06-24T01:33:06.612Z,21.13
2018-06-24T01:34:38.187Z,21.04
2018-06-24T01:36:09.761Z,21.03
2018-06-24T01:37:41.337Z,20.98
2018-06-24T01:39:12.911Z,21.04
2018-06-24T01:40:44.836Z,21.14
2018-06-24T01:42:16.059Z,20.98
2018-06-24T01:43:47.635Z,20.82
2018-06-24T01:45:19.209Z,20.87
2018-06-24T01:46:50.888Z,20.88
2018-06-24T01:48:22.360Z,20.98
2018-06-24T01:49:53.934Z,20.87
2018-06-24T01:51:25.508Z,20.70
2018-06-24T01:52:57.086Z,20.69
2018-06-24T01:54:28.659Z,20.72
2018-06-24T01:56:00.233Z,20.64
2018-06-24T01:57:31.809Z,20.57
2018-06-24T01:59:03.684Z,20.48
2018-06-24T02:00:34.959Z,20.51
2018-06-24T02:02:06.534Z,20.39
2018-06-24T02:03:38.109Z,20.48
2018-06-24T02:05:09.684Z,20.41
2018-06-24T02:06:41.260Z,20.29
2018-06-24T02:08:12.834Z,20.18
2018-06-24T02:09:44.410Z,20.17
2018-06-24T02:11:15.985Z,20.17
2018-06-24T02:12:47.563Z,20.08
2018-06-24T02:14:19.135Z,20.08
2018-06-24T02:15:50.712Z,20.02
2018-06-24T02:17:22.536Z,19.91
2018-06-24T02:18:53.861Z,19.69
2018-06-24T02:20:25.435Z,19.54
2018-06-24T02:21:57.010Z,19.43
2018-06-24T02:23:28.586Z,19.28
2018-06-24T02:25:00.161Z,19.25
2018-06-24T02:26:31.735Z,19.13
2018-06-24T02:28:03.311Z,18.88
2018-06-24T02:29:34.985Z,18.87
2018-06-24T02:31:06.469Z,18.76
2018-06-24T02:32:38.035Z,18.80
2018-06-24T02:34:09.609Z,18.70
2018-06-24T02:35:41.284Z,18.78
2018-06-24T02:37:12.760Z,18.98
2018-06-24T02:38:44.332Z,19.02
2018-06-24T02:40:15.908Z,19.10
2018-06-24T02:41:47.481Z,19.10
2018-06-24T02:43:19.055Z,19.22
2018-06-24T02:44:50.631Z,19.25
2018-06-24T02:46:22.203Z,19.19
2018-06-24T02:47:53.877Z,19.22
2018-06-24T02:49:25.353Z,19.18
2018-06-24T02:50:56.927Z,19.13
2018-06-24T02:52:28.503Z,18.94
2018-06-24T02:54:00.324Z,18.80
2018-06-24T02:55:31.649Z,18.69
2018-06-24T02:57:03.224Z,18.52
2018-06-24T02:58:34.798Z,18.52
2018-06-24T03:00:06.372Z,18.45
2018-06-24T03:01:37.947Z,18.55
2018-06-24T03:03:09.521Z,18.76
2018-06-24T03:04:41.095Z,19.32
2018-06-24T03:06:12.669Z,19.47
2018-06-24T03:07:44.243Z,19.56
2018-06-24T03:09:15.819Z,19.44
2018-06-24T03:10:47.392Z,19.31
2018-06-24T03:12:19.066Z,19.18
2018-06-24T03:13:50.541Z,19.02
2018-06-24T03:15:22.114Z,18.92
2018-06-24T03:16:53.688Z,18.95
2018-06-24T03:18:25.362Z,18.88
2018-06-24T03:19:56.836Z,18.92
2018-06-24T03:21:28.411Z,18.95
2018-06-24T03:22:59.986Z,18.99
2018-06-24T03:24:31.559Z,18.99
2018-06-24T03:26:03.134Z,18.94
2018-06-24T03:27:34.708Z,18.91
2018-06-24T03:29:06.283Z,18.91
2018-06-24T03:30:38.108Z,18.81
2018-06-24T03:32:09.432Z,18.73
2018-06-24T03:33:41.011Z,18.72
2018-06-24T03:35:12.582Z,18.60
2018-06-24T03:36:44.154Z,18.51
2018-06-24T03:38:15.728Z,18.50
2018-06-24T03:39:47.312Z,18.47
2018-06-24T03:41:18.876Z,18.41
2018-06-24T03:42:50.453Z,18.32
2018-06-24T03:44:22.026Z,18.41
2018-06-24T03:45:53.599Z,18.35
2018-06-24T03:47:25.173Z,18.37
2018-06-24T03:48:57.107Z,18.29
2018-06-24T03:50:28.321Z,18.26
2018-06-24T03:51:59.895Z,18.30
2018-06-24T03:53:31.470Z,18.27
2018-06-24T03:55:03.046Z,18.25
2018-06-24T03:56:34.618Z,18.29
2018-06-24T03:58:06.270Z,18.30
2018-06-24T03:59:37.766Z,18.33
2018-06-24T04:01:09.441Z,18.27
2018-06-24T04:02:40.914Z,18.29
2018-06-24T04:04:12.488Z,18.39
2018-06-24T04:05:44.062Z,18.39
2018-06-24T04:07:15.736Z,18.32
2018-06-24T04:08:47.210Z,18.41
2018-06-24T04:10:18.783Z,18.27
2018-06-24T04:11:50.357Z,18.25
2018-06-24T04:13:21.933Z,18.30
2018-06-24T04:14:53.506Z,18.26
2018-06-24T04:16:25.080Z,18.27
2018-06-24T04:17:56.653Z,18.29
2018-06-24T04:19:28.328Z,18.33
2018-06-24T04:20:59.800Z,18.26
2018-06-24T04:22:31.424Z,18.32
2018-06-24T04:24:03.003Z,18.23
2018-06-24T04:25:34.623Z,18.35
2018-06-24T04:27:06.096Z,18.48
2018-06-24T04:28:37.670Z,18.35
2018-06-24T04:30:09.244Z,18.30
2018-06-24T04:31:40.919Z,18.32
2018-06-24T04:33:12.392Z,18.35
2018-06-24T04:34:43.966Z,18.32
2018-06-24T04:36:15.539Z,18.27
2018-06-24T04:37:47.114Z,18.29
2018-06-24T04:39:18.688Z,18.29
2018-06-24T04:40:50.264Z,18.41
2018-06-24T04:42:21.842Z,18.50
2018-06-24T04:43:53.511Z,18.50
2018-06-24T04:45:24.984Z,18.67
2018-06-24T04:46:56.557Z,18.99
2018-06-24T04:48:28.132Z,19.16
2018-06-24T04:49:59.805Z,19.04
2018-06-24T04:51:31.287Z,18.85
2018-06-24T04:53:02.853Z,18.91
2018-06-24T04:54:34.426Z,18.99
2018-06-24T04:56:06.000Z,18.90
2018-06-24T04:57:37.576Z,19.00
2018-06-24T04:59:09.148Z,19.02
2018-06-24T05:00:40.722Z,18.90
2018-06-24T05:02:12.395Z,18.76
2018-06-24T05:03:43.873Z,18.73
2018-06-24T05:05:15.443Z,18.63
2018-06-24T05:06:47.017Z,18.76
2018-06-24T05:08:18.591Z,18.70
2018-06-24T05:09:50.165Z,18.66
2018-06-24T05:11:21.740Z,18.54
2018-06-24T05:12:53.313Z,18.70
2018-06-24T05:14:24.887Z,18.55
2018-06-24T05:15:56.462Z,18.54
2018-06-24T05:17:28.036Z,18.27
2018-06-24T05:18:59.609Z,18.08
2018-06-24T05:20:31.383Z,17.95
2018-06-24T05:22:02.756Z,17.95
2018-06-24T05:23:34.330Z,18.17
2018-06-24T05:25:05.909Z,18.48
2018-06-24T05:26:37.477Z,18.80
2018-06-24T05:28:09.051Z,19.07
2018-06-24T05:29:40.625Z,19.44
2018-06-24T05:31:12.198Z,19.74
2018-06-24T05:32:43.922Z,19.84
2018-06-24T05:34:15.345Z,19.78
2018-06-24T05:35:46.919Z,19.73
2018-06-24T05:37:18.493Z,19.65
2018-06-24T05:38:50.166Z,19.33
2018-06-24T05:40:21.640Z,19.14
2018-06-24T05:41:53.214Z,18.88
2018-06-24T05:43:24.788Z,18.45
2018-06-24T05:44:56.361Z,18.25
2018-06-24T05:46:27.938Z,18.12
2018-06-24T05:47:59.509Z,18.03
2018-06-24T05:49:31.083Z,18.10
2018-06-24T05:51:02.756Z,18.00
2018-06-24T05:52:34.230Z,18.08
2018-06-24T05:54:05.805Z,18.10
2018-06-24T05:55:37.377Z,18.20
2018-06-24T05:57:09.051Z,18.35
2018-06-24T05:58:40.524Z,18.29
2018-06-24T06:00:12.098Z,18.36
2018-06-24T06:01:43.672Z,18.36
2018-06-24T06:03:15.345Z,18.33
2018-06-24T06:04:46.822Z,18.35
2018-06-24T06:06:18.393Z,18.52
2018-06-24T06:07:49.966Z,18.69
2018-06-24T06:09:21.540Z,18.78
2018-06-24T06:10:53.114Z,18.72
2018-06-24T06:12:24.687Z,18.66
2018-06-24T06:13:56.264Z,18.62
2018-06-24T06:15:27.935Z,18.51
2018-06-24T06:16:59.409Z,18.39
2018-06-24T06:18:30.984Z,18.21
2018-06-24T06:20:02.556Z,18.07
2018-06-24T06:21:34.130Z,17.96
2018-06-24T06:23:05.703Z,18.02
2018-06-24T06:24:37.278Z,18.00
2018-06-24T06:26:08.851Z,18.05
2018-06-24T06:27:40.424Z,18.08
2018-06-24T06:29:11.999Z,18.12
2018-06-24T06:30:43.572Z,18.11
2018-06-24T06:32:15.146Z,18.18
2018-06-24T06:33:46.819Z,17.97
2018-06-24T06:35:18.292Z,17.84
2018-06-24T06:36:49.923Z,17.82
2018-06-24T06:38:21.439Z,17.66
2018-06-24T06:39:53.012Z,17.55
2018-06-24T06:41:24.588Z,17.54
2018-06-24T06:42:56.160Z,17.58
2018-06-24T06:44:27.732Z,17.66
2018-06-24T06:45:59.311Z,17.72
2018-06-24T06:47:30.879Z,17.79
2018-06-24T06:49:02.453Z,17.75
2018-06-24T06:50:34.026Z,17.74
2018-06-24T06:52:05.799Z,17.66
2018-06-24T06:53:37.172Z,17.72
2018-06-24T06:55:08.747Z,17.74
2018-06-24T06:56:41.022Z,17.72
2018-06-24T06:58:11.892Z,17.72
2018-06-24T06:59:43.465Z,17.81
2018-06-24T07:01:15.040Z,17.79
2018-06-24T07:02:46.616Z,17.72
2018-06-24T07:04:18.185Z,17.68
2018-06-24T07:05:49.788Z,17.66
2018-06-24T07:07:21.332Z,17.55
2018-06-24T07:08:52.905Z,17.72
2018-06-24T07:10:24.880Z,17.78
2018-06-24T07:11:56.052Z,18.05
2018-06-24T07:13:27.624Z,18.17
2018-06-24T07:14:59.198Z,18.32
2018-06-24T07:16:30.772Z,18.35
2018-06-24T07:18:02.345Z,18.51
2018-06-24T07:19:33.916Z,18.51
2018-06-24T07:21:05.491Z,18.55
2018-06-24T07:22:37.166Z,18.51
2018-06-24T07:24:08.636Z,18.75
2018-06-24T07:25:40.211Z,18.80
2018-06-24T07:27:11.783Z,18.82
2018-06-24T07:28:43.456Z,18.69
2018-06-24T07:30:14.929Z,18.60
2018-06-24T07:31:46.502Z,18.65
2018-06-24T07:33:18.078Z,18.73
2018-06-24T07:34:49.749Z,18.90
2018-06-24T07:36:21.225Z,19.16
2018-06-24T07:37:52.797Z,19.25
2018-06-24T07:39:24.374Z,19.16
2018-06-24T07:40:55.944Z,19.21
2018-06-24T07:42:27.519Z,19.11
2018-06-24T07:43:59.092Z,18.98
2018-06-24T07:45:30.664Z,18.78
2018-06-24T07:47:02.337Z,18.57
2018-06-24T07:48:33.812Z,18.44
2018-06-24T07:50:05.384Z,18.29
2018-06-24T07:51:36.958Z,18.30
2018-06-24T07:53:08.632Z,18.29
2018-06-24T07:54:40.108Z,18.15
2018-06-24T07:56:11.679Z,18.25
2018-06-24T07:57:43.254Z,18.39
2018-06-24T07:59:14.827Z,18.39
2018-06-24T08:00:46.400Z,18.33
2018-06-24T08:02:17.973Z,18.29
2018-06-24T08:03:49.547Z,18.37
2018-06-24T08:05:21.265Z,18.50
2018-06-24T08:06:52.694Z,18.50
2018-06-24T08:08:24.270Z,18.51
2018-06-24T08:09:55.842Z,18.45
2018-06-24T08:11:27.416Z,18.58
2018-06-24T08:12:58.989Z,18.69
2018-06-24T08:14:30.563Z,18.69
2018-06-24T08:16:02.137Z,18.80
2018-06-24T08:17:33.709Z,18.85
2018-06-24T08:19:05.284Z,18.99
2018-06-24T08:20:36.857Z,19.07
2018-06-24T08:22:08.431Z,19.19
2018-06-24T08:23:40.255Z,19.25
2018-06-24T08:25:11.578Z,19.26
2018-06-24T08:26:43.151Z,19.22
2018-06-24T08:28:14.725Z,19.31
2018-06-24T08:29:46.301Z,19.31
2018-06-24T08:31:17.872Z,19.19
2018-06-24T08:32:49.447Z,19.23
2018-06-24T08:34:21.022Z,19.18
2018-06-24T08:35:52.696Z,18.98
2018-06-24T08:37:24.168Z,19.07
2018-06-24T08:38:55.807Z,18.98
2018-06-24T08:40:27.314Z,18.92
2018-06-24T08:41:58.988Z,18.90
2018-06-24T08:43:30.462Z,18.87
2018-06-24T08:45:02.036Z,18.90
2018-06-24T08:46:33.610Z,18.94
2018-06-24T08:48:05.185Z,19.13
2018-06-24T08:49:36.756Z,19.19
2018-06-24T08:51:08.330Z,19.11
2018-06-24T08:52:39.903Z,19.07
2018-06-24T08:54:11.577Z,19.04
2018-06-24T08:55:43.053Z,18.98
2018-06-24T08:57:14.625Z,18.84
2018-06-24T08:58:46.197Z,18.82
2018-06-24T09:00:17.871Z,18.70
2018-06-24T09:01:49.344Z,18.63
2018-06-24T09:03:20.917Z,18.57
2018-06-24T09:04:52.491Z,18.55
2018-06-24T09:06:24.165Z,18.54
2018-06-24T09:07:55.676Z,18.69
2018-06-24T09:09:27.211Z,18.70
2018-06-24T09:10:58.785Z,18.66
2018-06-24T09:12:30.360Z,18.62
2018-06-24T09:14:01.932Z,18.70
2018-06-24T09:15:33.551Z,18.70
2018-06-24T09:17:05.077Z,18.78
2018-06-24T09:18:36.751Z,18.85
2018-06-24T09:20:08.224Z,18.88
2018-06-24T09:21:39.797Z,18.91
2018-06-24T09:23:11.369Z,18.94
2018-06-24T09:24:43.042Z,18.90
2018-06-24T09:26:14.515Z,19.06
2018-06-24T09:27:46.090Z,19.08
2018-06-24T09:29:17.664Z,19.07
2018-06-24T09:30:49.278Z,19.10
2018-06-24T09:32:20.808Z,18.99
2018-06-24T09:33:52.380Z,19.02
2018-06-24T09:35:23.954Z,19.18
2018-06-24T09:36:55.777Z,19.11
2018-06-24T09:38:27.101Z,19.13
2018-06-24T09:39:58.674Z,19.02
2018-06-24T09:41:30.251Z,18.85
2018-06-24T09:43:01.823Z,18.75
2018-06-24T09:44:33.393Z,18.72
2018-06-24T09:46:04.967Z,18.62
2018-06-24T09:47:36.540Z,18.62
2018-06-24T09:49:08.114Z,18.58
2018-06-24T09:50:39.687Z,18.33
2018-06-24T09:52:11.260Z,18.50
2018-06-24T09:53:42.833Z,18.54
2018-06-24T09:55:14.606Z,18.69
2018-06-24T09:56:45.978Z,18.67
2018-06-24T09:58:17.550Z,18.50
2018-06-24T09:59:49.124Z,18.12
2018-06-24T10:01:20.697Z,17.78
2018-06-24T10:02:52.270Z,17.56
2018-06-24T10:04:24.101Z,17.55
2018-06-24T10:07:27.194Z,17.48
2018-06-24T10:08:58.619Z,17.64
2018-06-24T10:10:30.190Z,17.72
2018-06-24T10:12:01.722Z,17.78
2018-06-24T10:13:33.381Z,17.75
2018-06-24T10:15:04.853Z,17.81
2018-06-24T10:16:36.428Z,17.75
2018-06-24T10:18:08.000Z,17.72
2018-06-24T10:19:39.877Z,17.75
2018-06-24T10:21:11.780Z,17.75
2018-06-24T10:22:42.719Z,17.81
2018-06-24T10:24:14.302Z,18.05
2018-06-24T10:25:45.966Z,18.10
2018-06-24T10:27:17.745Z,18.02
2018-06-24T10:28:49.949Z,17.77
2018-06-24T10:30:20.585Z,17.74
2018-06-24T10:31:52.259Z,17.92
2018-06-24T10:34:55.840Z,18.29
2018-06-24T10:36:26.879Z,18.48
2018-06-24T10:39:30.329Z,19.25
2018-06-24T10:41:01.617Z,19.31
2018-06-24T10:42:33.178Z,19.41
2018-06-24T10:45:36.624Z,19.61
2018-06-24T10:48:39.770Z,19.36
2018-06-24T10:57:49.316Z,19.61
2018-06-24T10:59:20.487Z,19.59
2018-06-24T11:03:55.207Z,20.17
2018-06-24T11:05:26.779Z,20.33
2018-06-24T11:06:58.354Z,20.41
2018-06-24T11:10:01.708Z,20.58
2018-06-24T11:13:04.654Z,20.94
2018-06-24T11:14:36.229Z,20.88
2018-06-24T11:16:07.906Z,21.09
2018-06-24T11:17:39.383Z,21.64
2018-06-24T11:19:10.958Z,22.07
2018-06-24T11:20:42.738Z,22.62
2018-06-24T11:22:14.313Z,22.54
2018-06-24T11:23:45.992Z,22.27
2018-06-24T11:25:17.269Z,22.06
2018-06-24T11:26:49.377Z,22.02
2018-06-24T11:28:20.722Z,21.88
2018-06-24T11:31:23.577Z,21.84
2018-06-24T11:32:55.158Z,21.75
2018-06-24T11:34:27.136Z,21.79
2018-06-24T11:35:58.309Z,21.84
2018-06-24T11:37:29.889Z,22.03
2018-06-24T11:40:33.043Z,23.61
2018-06-24T11:42:04.622Z,23.91
2018-06-24T11:43:36.201Z,23.94
2018-06-24T11:45:07.778Z,24.08
2018-06-24T11:46:39.561Z,24.22
2018-06-24T11:49:43.249Z,23.88
2018-06-24T11:51:14.094Z,23.76
2018-06-24T11:52:45.975Z,23.54
2018-06-24T11:55:48.832Z,23.16
2018-06-24T11:57:20.415Z,22.88
2018-06-24T12:01:55.586Z,22.62
2018-06-24T12:04:58.311Z,24.37
2018-06-24T12:06:30.094Z,24.65
2018-06-24T12:08:01.772Z,24.52
2018-06-24T12:11:04.639Z,24.00
2018-06-24T12:12:36.415Z,23.83
2018-06-24T12:14:07.894Z,23.84
2018-06-24T12:17:10.955Z,24.90
2018-06-24T12:18:42.969Z,24.78
2018-06-24T12:20:15.030Z,25.15
2018-06-24T12:23:17.815Z,25.03
2018-06-24T12:24:48.860Z,24.98
2018-06-24T12:26:21.090Z,24.69
2018-06-24T12:27:52.025Z,24.65
2018-06-24T12:29:23.607Z,24.34
2018-06-24T12:30:55.188Z,24.35
2018-06-24T12:32:27.071Z,24.46
2018-06-24T12:33:58.349Z,24.80
2018-06-24T12:35:29.932Z,24.80
2018-06-24T12:37:01.714Z,25.15
2018-06-24T12:40:05.208Z,25.85
2018-06-24T12:41:36.256Z,26.10
2018-06-24T12:44:39.422Z,25.72
2018-06-24T12:46:11.102Z,25.23
2018-06-24T12:49:14.165Z,25.32
2018-06-24T12:50:45.955Z,24.95
2018-06-24T12:52:17.328Z,24.69
2018-06-24T12:53:48.909Z,24.83
2018-06-24T12:55:20.491Z,25.02
2018-06-24T12:56:52.279Z,25.14
2018-06-24T12:58:23.697Z,25.64
2018-06-24T12:59:56.458Z,26.76
2018-06-24T13:01:26.817Z,26.48
2018-06-24T13:04:30.789Z,25.94
2018-06-24T13:06:01.867Z,25.99
2018-06-24T13:07:33.679Z,25.61
2018-06-24T13:09:04.726Z,25.43
2018-06-24T13:12:07.890Z,25.57
2018-06-24T13:13:39.472Z,25.64
2018-06-24T13:15:11.057Z,25.09
2018-06-24T13:18:14.217Z,25.91
2018-06-24T13:21:17.434Z,26.51
2018-06-24T13:22:48.962Z,27.18
2018-06-24T13:24:20.846Z,26.77
2018-06-24T13:27:23.908Z,26.09
2018-06-24T13:28:55.296Z,26.84
2018-06-24T13:31:58.501Z,26.99
2018-06-24T13:33:30.569Z,27.07
2018-06-24T13:35:01.618Z,27.60
2018-06-24T13:38:05.087Z,27.70
2018-06-24T13:41:07.948Z,28.02
2018-06-24T13:42:39.733Z,27.70
2018-06-24T13:44:11.970Z,27.59
2018-06-24T13:45:43.231Z,27.82
2018-06-24T13:50:17.448Z,27.41
2018-06-24T13:51:49.032Z,27.96
2018-06-24T13:53:20.919Z,28.49
2018-06-24T13:54:52.199Z,28.07
2018-06-24T13:56:23.986Z,28.30
2018-06-24T13:57:55.369Z,28.00
2018-06-24T13:59:26.954Z,27.77
2018-06-24T14:02:30.221Z,27.65
2018-06-24T14:04:01.759Z,27.65
2018-06-24T14:07:04.871Z,26.99
2018-06-24T14:10:08.140Z,27.19
2018-06-24T14:11:39.624Z,28.03
2018-06-24T14:13:11.207Z,28.85
2018-06-24T14:14:42.789Z,29.46
2018-06-24T14:16:14.680Z,28.59
2018-06-24T14:17:45.957Z,27.88
2018-06-24T14:19:17.747Z,27.74
2018-06-24T14:22:21.013Z,29.14
2018-06-24T14:25:23.877Z,28.46
2018-06-24T14:26:55.462Z,28.14
2018-06-24T14:28:27.053Z,29.09
2018-06-24T14:29:58.630Z,29.57
2018-06-24T14:31:30.749Z,29.92
2018-06-24T14:33:01.837Z,30.60
2018-06-24T14:34:33.919Z,29.42
2018-06-24T14:36:04.973Z,29.42
2018-06-24T14:37:37.088Z,29.42
2018-06-24T14:39:08.140Z,29.90
2018-06-24T14:40:40.330Z,30.24
2018-06-24T14:42:11.615Z,30.34
2018-06-24T14:43:42.895Z,29.82
2018-06-24T14:46:46.067Z,28.12
2018-06-24T14:48:17.860Z,28.92
2018-06-24T14:49:49.770Z,28.62
2018-06-24T14:51:21.026Z,28.46
2018-06-24T14:52:53.046Z,28.77
2018-06-24T14:55:55.581Z,29.31
2018-06-24T15:00:30.738Z,29.53
2018-06-24T15:03:33.713Z,29.04
2018-06-24T15:05:05.096Z,28.85
2018-06-24T15:06:36.883Z,29.82
2018-06-24T15:08:08.266Z,29.82
2018-06-24T15:09:40.055Z,29.67
2018-06-24T15:11:11.450Z,29.41
2018-06-24T15:12:43.174Z,29.21
2018-06-24T15:14:14.611Z,29.06
2018-06-24T15:18:49.671Z,30.46
2018-06-24T15:21:52.540Z,30.20
2018-06-24T15:23:24.327Z,29.27
2018-06-24T15:24:55.711Z,29.11
2018-06-24T15:26:27.300Z,28.67
2018-06-24T15:27:58.885Z,29.68
2018-06-24T15:29:30.472Z,29.00
2018-06-24T15:31:02.063Z,29.53
2018-06-24T15:32:33.847Z,29.98
2018-06-24T15:34:05.230Z,29.74
2018-06-24T15:35:36.816Z,29.83
2018-06-24T15:37:09.440Z,29.67
2018-06-24T15:40:12.107Z,28.80
2018-06-24T15:41:43.364Z,29.27
2018-06-24T15:43:14.845Z,29.70
2018-06-24T15:44:46.331Z,29.82
2018-06-24T15:46:17.916Z,30.23
2018-06-24T15:49:21.391Z,30.35
2018-06-24T15:50:52.875Z,30.47
2018-06-24T15:53:56.585Z,30.32
2018-06-24T15:55:27.530Z,30.17
2018-06-24T15:56:59.016Z,29.73
2018-06-24T15:58:30.603Z,30.00
2018-06-24T16:00:02.191Z,30.65
2018-06-24T16:01:33.775Z,30.11
2018-06-24T16:03:05.361Z,29.42
2018-06-24T16:04:36.946Z,28.85
2018-06-24T16:06:09.268Z,29.06
2018-06-24T16:09:11.705Z,29.76
2018-06-24T16:10:43.289Z,30.49
2018-06-24T16:12:14.874Z,29.80
2018-06-24T16:13:46.459Z,30.95
2018-06-24T16:15:18.145Z,31.02
2018-06-24T16:16:50.820Z,29.71
2018-06-24T16:18:21.215Z,29.24
2018-06-24T16:19:52.800Z,29.73
2018-06-24T16:21:24.386Z,30.08
2018-06-24T16:22:56.003Z,30.43
2018-06-24T16:25:59.142Z,29.42
2018-06-24T16:27:30.728Z,29.16
2018-06-24T16:29:02.313Z,29.58
2018-06-24T16:30:34.192Z,29.30
2018-06-24T16:32:05.483Z,29.70
2018-06-24T16:33:38.106Z,29.98
2018-06-24T16:35:08.653Z,31.21
2018-06-24T16:36:40.239Z,31.07
2018-06-24T16:38:11.824Z,31.65
2018-06-24T16:41:15.729Z,30.77
2018-06-24T16:42:46.579Z,31.50
2018-06-24T16:44:18.164Z,32.00
2018-06-24T16:45:49.749Z,32.48
2018-06-24T16:47:22.020Z,31.09
2018-06-24T16:50:24.508Z,30.89
2018-06-24T16:51:56.094Z,30.57
2018-06-24T16:53:28.132Z,30.80
2018-06-24T16:54:59.266Z,31.20
2018-06-24T16:56:31.060Z,30.97
2018-06-24T16:58:02.783Z,30.61
2018-06-24T16:59:34.025Z,30.35
2018-06-24T17:01:05.618Z,29.83
2018-06-24T17:02:37.198Z,30.79
2018-06-24T17:05:40.573Z,31.73
2018-06-24T17:08:43.539Z,31.12
2018-06-24T17:10:15.125Z,30.38
2018-06-24T17:11:46.812Z,31.04
2018-06-24T17:14:50.083Z,31.28
2018-06-24T17:16:21.467Z,31.34
2018-06-24T17:17:53.405Z,31.41
2018-06-24T17:19:24.638Z,31.29
2018-06-24T17:20:56.224Z,30.77
2018-06-24T17:22:27.813Z,30.57
2018-06-24T17:23:59.510Z,30.16
2018-06-24T17:25:30.980Z,30.62
2018-06-24T17:28:34.151Z,30.95
2018-06-24T17:30:05.885Z,31.06
2018-06-24T17:31:37.322Z,31.89
2018-06-24T17:33:09.126Z,30.76
2018-06-24T17:34:40.492Z,30.05
2018-06-24T17:36:12.085Z,30.38
2018-06-24T17:37:43.968Z,30.32
2018-06-24T17:39:15.453Z,30.34
2018-06-24T17:40:46.880Z,30.94
2018-06-24T17:42:18.418Z,31.16
2018-06-24T17:43:50.006Z,32.14
2018-06-24T17:45:21.588Z,31.38
2018-06-24T17:48:24.858Z,33.06
2018-06-24T17:49:56.342Z,33.71
2018-06-24T17:51:28.131Z,31.81
2018-06-24T17:54:31.199Z,33.14
2018-06-24T17:57:34.574Z,31.16
2018-06-24T17:59:06.056Z,30.82
2018-06-24T18:03:40.910Z,30.01
2018-06-24T18:05:12.194Z,29.24
2018-06-24T18:06:43.779Z,28.81
2018-06-24T18:08:15.396Z,28.64
2018-06-24T18:09:46.947Z,27.99
2018-06-24T18:11:18.532Z,27.97
2018-06-24T18:12:50.115Z,28.00
2018-06-24T18:15:53.282Z,27.88
2018-06-24T18:17:24.865Z,27.90
2018-06-24T18:18:56.449Z,28.41
2018-06-24T18:20:28.031Z,28.12
2018-06-24T18:22:00.246Z,27.97
2018-06-24T18:23:31.197Z,27.41
2018-06-24T18:26:34.362Z,25.91
2018-06-24T18:28:06.209Z,25.72
2018-06-24T18:29:37.525Z,25.51
2018-06-24T18:31:09.134Z,25.21
2018-06-24T18:32:40.689Z,24.90
2018-06-24T18:34:12.272Z,24.85
2018-06-24T18:35:43.853Z,24.64
2018-06-24T18:37:16.166Z,24.52
2018-06-24T18:40:18.893Z,24.18
2018-06-24T18:41:50.175Z,24.03
2018-06-24T18:43:21.749Z,24.18
2018-06-24T18:44:53.329Z,24.09
2018-06-24T18:47:56.487Z,24.15
2018-06-24T18:49:28.599Z,24.02
2018-06-24T18:50:59.646Z,23.72
2018-06-24T18:52:31.224Z,23.70
2018-06-24T18:54:03.007Z,23.65
2018-06-24T18:55:34.385Z,23.79
2018-06-24T18:58:37.540Z,23.80
2018-06-24T19:00:09.268Z,23.61
2018-06-24T19:01:40.703Z,23.35
2018-06-24T19:03:12.883Z,23.12
2018-06-24T19:04:43.854Z,22.97
2018-06-24T19:06:15.437Z,22.90
2018-06-24T19:07:47.011Z,22.94
2018-06-24T19:10:50.167Z,22.75
2018-06-24T19:12:21.753Z,22.67
2018-06-24T19:13:53.325Z,22.76
2018-06-24T19:15:24.901Z,23.01
2018-06-24T19:16:56.480Z,23.00
2018-06-24T19:18:28.157Z,22.75
2018-06-24T19:19:59.635Z,22.82
2018-06-24T19:21:31.946Z,22.68
2018-06-24T19:23:02.790Z,22.40
2018-06-24T19:26:06.159Z,22.20
2018-06-24T19:27:37.523Z,21.94
2018-06-24T19:29:09.101Z,22.03
2018-06-24T19:30:40.679Z,22.12
2018-06-24T19:32:12.459Z,21.90
2018-06-24T19:33:43.833Z,21.68
2018-06-24T19:35:15.410Z,21.61
2018-06-24T19:36:46.987Z,21.52
2018-06-24T19:38:18.664Z,21.50
2018-06-24T19:39:50.140Z,21.31
2018-06-24T19:41:21.724Z,21.13
2018-06-24T19:42:53.296Z,20.99
2018-06-24T19:44:24.871Z,20.74
2018-06-24T19:45:56.448Z,20.74
2018-06-24T19:47:28.024Z,20.59
2018-06-24T19:48:59.600Z,20.72
2018-06-24T19:50:31.176Z,20.84
2018-06-24T19:52:02.753Z,20.95
2018-06-24T19:53:34.328Z,21.14
2018-06-24T19:55:05.913Z,21.07
2018-06-24T19:56:37.787Z,21.53
2018-06-24T19:58:09.057Z,21.77
2018-06-24T19:59:40.633Z,21.59
2018-06-24T20:01:12.208Z,21.44
2018-06-24T20:02:43.784Z,21.03
2018-06-24T20:04:15.359Z,20.88
2018-06-24T20:05:46.936Z,20.95
2018-06-24T20:07:18.514Z,20.98
2018-06-24T20:08:50.288Z,20.99
2018-06-24T20:10:21.663Z,20.89
2018-06-24T20:11:53.238Z,20.97
2018-06-24T20:13:24.819Z,20.66
2018-06-24T20:14:56.489Z,20.61
2018-06-24T20:16:28.045Z,20.32
2018-06-24T20:17:59.540Z,20.02
2018-06-24T20:19:31.115Z,19.84
2018-06-24T20:21:02.692Z,19.51
2018-06-24T20:22:34.265Z,19.55
2018-06-24T20:24:05.840Z,19.54
2018-06-24T20:25:37.420Z,19.46
2018-06-24T20:27:09.144Z,19.44
2018-06-24T20:28:40.568Z,19.28
2018-06-24T20:30:12.138Z,19.36
2018-06-24T20:31:43.713Z,19.32
2018-06-24T20:33:15.388Z,19.19
2018-06-24T20:34:46.861Z,19.13
2018-06-24T20:36:18.435Z,19.13
2018-06-24T20:37:50.011Z,19.10
2018-06-24T20:39:21.784Z,19.36
2018-06-24T20:40:53.158Z,19.25
2018-06-24T20:42:24.731Z,19.28
2018-06-24T20:43:56.305Z,19.23
2018-06-24T20:45:27.879Z,19.11
2018-06-24T20:46:59.454Z,19.11
2018-06-24T20:48:31.028Z,19.07
2018-06-24T20:50:02.601Z,19.25
2018-06-24T20:51:34.276Z,19.18
2018-06-24T20:53:05.750Z,19.16
2018-06-24T20:54:37.322Z,19.11
2018-06-24T20:56:08.905Z,19.18
2018-06-24T20:57:40.624Z,19.16
2018-06-24T20:59:12.045Z,19.16
2018-06-24T21:00:43.618Z,19.08
2018-06-24T21:02:15.192Z,19.02
2018-06-24T21:03:46.779Z,18.98
2018-06-24T21:05:18.339Z,18.99
2018-06-24T21:06:49.915Z,18.87
2018-06-24T21:08:21.486Z,18.85
2018-06-24T21:09:53.160Z,18.81
2018-06-24T21:11:24.634Z,18.85
2018-06-24T21:12:56.208Z,18.85
2018-06-24T21:14:27.783Z,18.69
2018-06-24T21:15:59.366Z,18.72
2018-06-24T21:17:30.928Z,18.72
2018-06-24T21:19:02.505Z,18.63
2018-06-24T21:20:34.074Z,18.78
2018-06-24T21:22:05.649Z,18.69
2018-06-24T21:23:37.222Z,18.78
2018-06-24T21:25:08.795Z,18.66
2018-06-24T21:26:40.373Z,18.63
2018-06-24T21:28:12.043Z,18.70
2018-06-24T21:29:43.516Z,18.69